sensor_id;sensor_type;location;lat;lon;timestamp;P1;durP1;ratioP1;P2;durP2;ratioP2
1344;SDS011;15375;48.540;9.268;2023-09-12T00:00:39;11.10;;;9.90;;
1344;SDS011;15375;48.540;9.268;2023-09-12T00:03:05;16.87;;;11.20;;
1344;SDS011;15375;48.540;9.268;2023-09-12T00:05:30;12.07;;;9.50;;
1344;SDS011;15375;48.540;9.268;2023-09-12T00:07:56;12.60;;;10.00;;
1344;SDS011;15375;48.540;9.268;2023-09-12T00:10:21;16.53;;;10.63;;
1344;SDS011;15375;48.540;9.268;2023-09-12T00:12:46;11.57;;;8.30;;
1344;SDS011;15375;48.540;9.268;2023-09-12T00:15:12;13.43;;;10.80;;
1344;SDS011;15375;48.540;9.268;2023-09-12T00:17:37;11.47;;;10.27;;
1344;SDS011;15375;48.540;9.268;2023-09-12T00:20:03;10.50;;;9.10;;
1344;SDS011;15375;48.540;9.268;2023-09-12T00:22:31;15.37;;;9.87;;
1344;SDS011;15375;48.540;9.268;2023-09-12T00:24:56;16.40;;;10.30;;
1344;SDS011;15375;48.540;9.268;2023-09-12T00:27:22;19.83;;;9.83;;
1344;SDS011;15375;48.540;9.268;2023-09-12T00:29:47;10.77;;;9.67;;
1344;SDS011;15375;48.540;9.268;2023-09-12T00:32:12;15.17;;;9.60;;
1344;SDS011;15375;48.540;9.268;2023-09-12T00:34:38;11.20;;;10.13;;
1344;SDS011;15375;48.540;9.268;2023-09-12T00:37:04;11.33;;;9.60;;
1344;SDS011;15375;48.540;9.268;2023-09-12T00:39:29;10.90;;;9.47;;
1344;SDS011;15375;48.540;9.268;2023-09-12T00:41:55;9.50;;;8.60;;
1344;SDS011;15375;48.540;9.268;2023-09-12T00:44:20;11.63;;;9.93;;
1344;SDS011;15375;48.540;9.268;2023-09-12T00:46:46;14.30;;;10.40;;
1344;SDS011;15375;48.540;9.268;2023-09-12T00:49:14;12.00;;;10.70;;
1344;SDS011;15375;48.540;9.268;2023-09-12T00:51:41;11.07;;;9.50;;
1344;SDS011;15375;48.540;9.268;2023-09-12T00:54:08;13.50;;;10.43;;
1344;SDS011;15375;48.540;9.268;2023-09-12T00:56:33;12.87;;;10.03;;
1344;SDS011;15375;48.540;9.268;2023-09-12T00:59:00;11.87;;;9.50;;
1344;SDS011;15375;48.540;9.268;2023-09-12T01:01:26;13.10;;;9.90;;
1344;SDS011;15375;48.540;9.268;2023-09-12T01:03:51;9.87;;;8.97;;
1344;SDS011;15375;48.540;9.268;2023-09-12T01:06:19;10.30;;;8.43;;
1344;SDS011;15375;48.540;9.268;2023-09-12T01:08:46;10.30;;;8.10;;
1344;SDS011;15375;48.540;9.268;2023-09-12T01:11:12;10.47;;;9.37;;
1344;SDS011;15375;48.540;9.268;2023-09-12T01:13:38;13.63;;;8.93;;
1344;SDS011;15375;48.540;9.268;2023-09-12T01:16:04;13.47;;;9.43;;
1344;SDS011;15375;48.540;9.268;2023-09-12T01:18:29;9.30;;;8.27;;
1344;SDS011;15375;48.540;9.268;2023-09-12T01:21:04;10.63;;;9.67;;
1344;SDS011;15375;48.540;9.268;2023-09-12T01:26:56;9.57;;;8.77;;
1344;SDS011;15375;48.540;9.268;2023-09-12T01:29:37;12.77;;;9.70;;
1344;SDS011;15375;48.540;9.268;2023-09-12T01:32:04;16.00;;;10.23;;
1344;SDS011;15375;48.540;9.268;2023-09-12T01:34:29;13.50;;;10.40;;
1344;SDS011;15375;48.540;9.268;2023-09-12T01:36:55;15.10;;;10.00;;
1344;SDS011;15375;48.540;9.268;2023-09-12T01:39:20;12.23;;;10.30;;
1344;SDS011;15375;48.540;9.268;2023-09-12T01:41:45;11.40;;;9.83;;
1344;SDS011;15375;48.540;9.268;2023-09-12T01:44:13;12.80;;;9.77;;
1344;SDS011;15375;48.540;9.268;2023-09-12T01:46:39;11.33;;;9.80;;
1344;SDS011;15375;48.540;9.268;2023-09-12T01:49:06;11.60;;;9.00;;
1344;SDS011;15375;48.540;9.268;2023-09-12T01:51:33;11.20;;;9.03;;
1344;SDS011;15375;48.540;9.268;2023-09-12T01:54:00;11.27;;;9.00;;
1344;SDS011;15375;48.540;9.268;2023-09-12T01:56:28;10.50;;;9.50;;
1344;SDS011;15375;48.540;9.268;2023-09-12T01:58:55;14.90;;;8.97;;
1344;SDS011;15375;48.540;9.268;2023-09-12T02:01:21;10.80;;;8.67;;
1344;SDS011;15375;48.540;9.268;2023-09-12T02:03:46;11.10;;;9.70;;
1344;SDS011;15375;48.540;9.268;2023-09-12T02:06:11;11.47;;;9.90;;
1344;SDS011;15375;48.540;9.268;2023-09-12T02:08:37;10.73;;;9.50;;
1344;SDS011;15375;48.540;9.268;2023-09-12T02:11:02;11.50;;;9.73;;
1344;SDS011;15375;48.540;9.268;2023-09-12T02:13:27;12.83;;;10.03;;
1344;SDS011;15375;48.540;9.268;2023-09-12T02:15:59;12.80;;;9.40;;
1344;SDS011;15375;48.540;9.268;2023-09-12T02:18:25;10.20;;;9.13;;
1344;SDS011;15375;48.540;9.268;2023-09-12T02:20:50;10.70;;;9.60;;
1344;SDS011;15375;48.540;9.268;2023-09-12T02:23:16;10.47;;;9.50;;
1344;SDS011;15375;48.540;9.268;2023-09-12T02:25:41;10.33;;;9.30;;
1344;SDS011;15375;48.540;9.268;2023-09-12T02:28:06;13.40;;;9.57;;
1344;SDS011;15375;48.540;9.268;2023-09-12T02:30:32;10.47;;;9.27;;
1344;SDS011;15375;48.540;9.268;2023-09-12T02:32:57;10.53;;;9.43;;
1344;SDS011;15375;48.540;9.268;2023-09-12T02:35:22;11.40;;;9.53;;
1344;SDS011;15375;48.540;9.268;2023-09-12T02:37:48;9.70;;;8.70;;
1344;SDS011;15375;48.540;9.268;2023-09-12T02:40:13;13.03;;;8.97;;
1344;SDS011;15375;48.540;9.268;2023-09-12T02:42:39;14.57;;;9.47;;
1344;SDS011;15375;48.540;9.268;2023-09-12T02:45:05;10.20;;;9.10;;
1344;SDS011;15375;48.540;9.268;2023-09-12T02:47:31;13.23;;;10.00;;
1344;SDS011;15375;48.540;9.268;2023-09-12T02:49:56;13.37;;;9.90;;
1344;SDS011;15375;48.540;9.268;2023-09-12T02:52:21;11.67;;;10.43;;
1344;SDS011;15375;48.540;9.268;2023-09-12T02:54:47;10.80;;;9.90;;
1344;SDS011;15375;48.540;9.268;2023-09-12T02:57:12;10.40;;;9.40;;
1344;SDS011;15375;48.540;9.268;2023-09-12T02:59:38;12.30;;;9.17;;
1344;SDS011;15375;48.540;9.268;2023-09-12T03:02:06;11.40;;;9.37;;
1344;SDS011;15375;48.540;9.268;2023-09-12T03:04:32;12.83;;;9.50;;
1344;SDS011;15375;48.540;9.268;2023-09-12T03:07:00;11.30;;;9.37;;
1344;SDS011;15375;48.540;9.268;2023-09-12T03:09:25;9.53;;;8.63;;
1344;SDS011;15375;48.540;9.268;2023-09-12T03:11:50;10.73;;;9.73;;
1344;SDS011;15375;48.540;9.268;2023-09-12T03:14:16;10.63;;;9.70;;
1344;SDS011;15375;48.540;9.268;2023-09-12T03:16:41;11.97;;;10.00;;
1344;SDS011;15375;48.540;9.268;2023-09-12T03:19:07;11.63;;;10.13;;
1344;SDS011;15375;48.540;9.268;2023-09-12T03:21:32;11.23;;;10.17;;
1344;SDS011;15375;48.540;9.268;2023-09-12T03:23:57;13.10;;;9.80;;
1344;SDS011;15375;48.540;9.268;2023-09-12T03:26:22;10.80;;;9.80;;
1344;SDS011;15375;48.540;9.268;2023-09-12T03:28:51;13.13;;;9.50;;
1344;SDS011;15375;48.540;9.268;2023-09-12T03:31:18;11.90;;;9.43;;
1344;SDS011;15375;48.540;9.268;2023-09-12T03:33:44;11.10;;;9.53;;
1344;SDS011;15375;48.540;9.268;2023-09-12T03:36:15;18.80;;;10.57;;
1344;SDS011;15375;48.540;9.268;2023-09-12T03:38:41;11.43;;;9.77;;
1344;SDS011;15375;48.540;9.268;2023-09-12T03:41:06;13.03;;;9.20;;
1344;SDS011;15375;48.540;9.268;2023-09-12T03:43:32;16.20;;;10.90;;
1344;SDS011;15375;48.540;9.268;2023-09-12T03:45:58;12.57;;;10.00;;
1344;SDS011;15375;48.540;9.268;2023-09-12T03:48:23;10.47;;;9.30;;
1344;SDS011;15375;48.540;9.268;2023-09-12T03:50:49;13.27;;;9.77;;
1344;SDS011;15375;48.540;9.268;2023-09-12T03:53:15;11.53;;;9.63;;
1344;SDS011;15375;48.540;9.268;2023-09-12T03:55:41;16.83;;;9.27;;
1344;SDS011;15375;48.540;9.268;2023-09-12T03:58:06;17.70;;;9.70;;
1344;SDS011;15375;48.540;9.268;2023-09-12T04:00:32;10.47;;;9.20;;
1344;SDS011;15375;48.540;9.268;2023-09-12T04:02:57;13.70;;;9.90;;
1344;SDS011;15375;48.540;9.268;2023-09-12T04:05:22;21.90;;;11.00;;
1344;SDS011;15375;48.540;9.268;2023-09-12T04:07:48;12.67;;;10.83;;
1344;SDS011;15375;48.540;9.268;2023-09-12T04:10:13;13.00;;;9.87;;
1344;SDS011;15375;48.540;9.268;2023-09-12T04:12:39;9.83;;;8.83;;
1344;SDS011;15375;48.540;9.268;2023-09-12T04:15:05;11.20;;;10.10;;
1344;SDS011;15375;48.540;9.268;2023-09-12T04:17:31;12.00;;;10.70;;
1344;SDS011;15375;48.540;9.268;2023-09-12T04:19:56;13.43;;;11.13;;
1344;SDS011;15375;48.540;9.268;2023-09-12T04:22:22;10.00;;;9.00;;
1344;SDS011;15375;48.540;9.268;2023-09-12T04:24:47;14.80;;;10.97;;
1344;SDS011;15375;48.540;9.268;2023-09-12T04:27:12;18.73;;;11.37;;
1344;SDS011;15375;48.540;9.268;2023-09-12T04:29:38;10.80;;;9.73;;
1344;SDS011;15375;48.540;9.268;2023-09-12T04:32:04;11.57;;;10.10;;
1344;SDS011;15375;48.540;9.268;2023-09-12T04:34:30;15.33;;;11.40;;
1344;SDS011;15375;48.540;9.268;2023-09-12T04:36:56;13.63;;;11.37;;
1344;SDS011;15375;48.540;9.268;2023-09-12T04:39:21;15.87;;;11.60;;
1344;SDS011;15375;48.540;9.268;2023-09-12T04:41:47;13.03;;;11.17;;
1344;SDS011;15375;48.540;9.268;2023-09-12T04:44:12;16.40;;;11.40;;
1344;SDS011;15375;48.540;9.268;2023-09-12T04:46:37;16.47;;;11.20;;
1344;SDS011;15375;48.540;9.268;2023-09-12T04:49:03;11.57;;;10.50;;
1344;SDS011;15375;48.540;9.268;2023-09-12T04:51:28;10.63;;;9.60;;
1344;SDS011;15375;48.540;9.268;2023-09-12T04:53:54;12.60;;;11.30;;
1344;SDS011;15375;48.540;9.268;2023-09-12T04:56:20;11.97;;;10.07;;
1344;SDS011;15375;48.540;9.268;2023-09-12T04:58:45;10.20;;;8.90;;
1344;SDS011;15375;48.540;9.268;2023-09-12T05:01:10;14.67;;;10.60;;
1344;SDS011;15375;48.540;9.268;2023-09-12T05:03:36;11.97;;;8.73;;
1344;SDS011;15375;48.540;9.268;2023-09-12T05:06:02;10.93;;;9.80;;
1344;SDS011;15375;48.540;9.268;2023-09-12T05:08:28;13.73;;;9.87;;
1344;SDS011;15375;48.540;9.268;2023-09-12T05:10:54;11.13;;;9.90;;
1344;SDS011;15375;48.540;9.268;2023-09-12T05:13:19;11.10;;;10.00;;
1344;SDS011;15375;48.540;9.268;2023-09-12T05:15:44;13.73;;;10.80;;
1344;SDS011;15375;48.540;9.268;2023-09-12T05:18:11;20.97;;;11.63;;
1344;SDS011;15375;48.540;9.268;2023-09-12T05:20:36;13.27;;;10.70;;
1344;SDS011;15375;48.540;9.268;2023-09-12T05:23:02;12.37;;;10.67;;
1344;SDS011;15375;48.540;9.268;2023-09-12T05:25:27;12.10;;;10.87;;
1344;SDS011;15375;48.540;9.268;2023-09-12T05:27:54;13.37;;;11.70;;
1344;SDS011;15375;48.540;9.268;2023-09-12T05:30:19;14.77;;;11.40;;
1344;SDS011;15375;48.540;9.268;2023-09-12T05:32:45;12.73;;;11.33;;
1344;SDS011;15375;48.540;9.268;2023-09-12T05:35:10;12.50;;;11.20;;
1344;SDS011;15375;48.540;9.268;2023-09-12T05:37:35;12.70;;;11.17;;
1344;SDS011;15375;48.540;9.268;2023-09-12T05:40:01;12.93;;;10.87;;
1344;SDS011;15375;48.540;9.268;2023-09-12T05:42:26;13.80;;;11.07;;
1344;SDS011;15375;48.540;9.268;2023-09-12T05:44:52;12.63;;;9.93;;
1344;SDS011;15375;48.540;9.268;2023-09-12T05:47:20;12.90;;;9.30;;
1344;SDS011;15375;48.540;9.268;2023-09-12T05:49:46;9.20;;;8.13;;
1344;SDS011;15375;48.540;9.268;2023-09-12T05:52:11;9.30;;;8.40;;
1344;SDS011;15375;48.540;9.268;2023-09-12T05:54:37;9.40;;;8.40;;
1344;SDS011;15375;48.540;9.268;2023-09-12T05:57:04;16.50;;;10.93;;
1344;SDS011;15375;48.540;9.268;2023-09-12T05:59:30;13.30;;;11.10;;
1344;SDS011;15375;48.540;9.268;2023-09-12T06:01:55;12.43;;;10.40;;
1344;SDS011;15375;48.540;9.268;2023-09-12T06:04:21;12.90;;;10.20;;
1344;SDS011;15375;48.540;9.268;2023-09-12T06:06:46;12.23;;;10.50;;
1344;SDS011;15375;48.540;9.268;2023-09-12T06:09:12;14.70;;;11.30;;
1344;SDS011;15375;48.540;9.268;2023-09-12T06:11:37;13.03;;;11.50;;
1344;SDS011;15375;48.540;9.268;2023-09-12T06:14:03;14.33;;;11.70;;
1344;SDS011;15375;48.540;9.268;2023-09-12T06:16:28;13.80;;;11.90;;
1344;SDS011;15375;48.540;9.268;2023-09-12T06:18:54;16.37;;;11.50;;
1344;SDS011;15375;48.540;9.268;2023-09-12T06:21:20;14.60;;;11.47;;
1344;SDS011;15375;48.540;9.268;2023-09-12T06:24:07;13.47;;;12.13;;
1344;SDS011;15375;48.540;9.268;2023-09-12T06:26:38;13.70;;;12.30;;
1344;SDS011;15375;48.540;9.268;2023-09-12T06:29:04;14.27;;;12.13;;
1344;SDS011;15375;48.540;9.268;2023-09-12T06:31:30;13.23;;;12.10;;
1344;SDS011;15375;48.540;9.268;2023-09-12T06:33:56;14.37;;;11.60;;
1344;SDS011;15375;48.540;9.268;2023-09-12T06:36:22;14.73;;;11.70;;
1344;SDS011;15375;48.540;9.268;2023-09-12T06:38:49;13.10;;;11.80;;
1344;SDS011;15375;48.540;9.268;2023-09-12T06:41:14;12.60;;;11.30;;
1344;SDS011;15375;48.540;9.268;2023-09-12T06:43:40;14.13;;;12.20;;
1344;SDS011;15375;48.540;9.268;2023-09-12T06:46:05;13.03;;;11.73;;
1344;SDS011;15375;48.540;9.268;2023-09-12T06:48:30;12.60;;;11.50;;
1344;SDS011;15375;48.540;9.268;2023-09-12T06:50:56;12.80;;;11.50;;
1344;SDS011;15375;48.540;9.268;2023-09-12T06:53:21;13.60;;;12.20;;
1344;SDS011;15375;48.540;9.268;2023-09-12T06:55:46;14.87;;;11.83;;
1344;SDS011;15375;48.540;9.268;2023-09-12T06:58:12;15.00;;;13.20;;
1344;SDS011;15375;48.540;9.268;2023-09-12T07:00:37;15.73;;;11.60;;
1344;SDS011;15375;48.540;9.268;2023-09-12T07:03:03;15.20;;;13.70;;
1344;SDS011;15375;48.540;9.268;2023-09-12T07:05:28;13.23;;;12.03;;
1344;SDS011;15375;48.540;9.268;2023-09-12T07:07:54;15.70;;;12.47;;
1344;SDS011;15375;48.540;9.268;2023-09-12T07:10:19;13.70;;;12.30;;
1344;SDS011;15375;48.540;9.268;2023-09-12T07:12:45;13.97;;;12.53;;
1344;SDS011;15375;48.540;9.268;2023-09-12T07:15:10;14.70;;;13.20;;
1344;SDS011;15375;48.540;9.268;2023-09-12T07:17:36;13.67;;;12.20;;
1344;SDS011;15375;48.540;9.268;2023-09-12T07:20:01;12.67;;;11.37;;
1344;SDS011;15375;48.540;9.268;2023-09-12T07:22:26;14.17;;;12.17;;
1344;SDS011;15375;48.540;9.268;2023-09-12T07:24:52;13.77;;;12.40;;
1344;SDS011;15375;48.540;9.268;2023-09-12T07:27:17;13.00;;;11.70;;
1344;SDS011;15375;48.540;9.268;2023-09-12T07:29:42;13.30;;;11.73;;
1344;SDS011;15375;48.540;9.268;2023-09-12T07:32:08;14.20;;;12.90;;
1344;SDS011;15375;48.540;9.268;2023-09-12T07:34:33;15.17;;;12.00;;
1344;SDS011;15375;48.540;9.268;2023-09-12T07:36:59;15.10;;;13.43;;
1344;SDS011;15375;48.540;9.268;2023-09-12T07:39:24;15.17;;;13.67;;
1344;SDS011;15375;48.540;9.268;2023-09-12T07:41:49;17.30;;;12.37;;
1344;SDS011;15375;48.540;9.268;2023-09-12T07:44:15;15.33;;;12.47;;
1344;SDS011;15375;48.540;9.268;2023-09-12T07:46:41;17.67;;;12.67;;
1344;SDS011;15375;48.540;9.268;2023-09-12T07:49:08;14.80;;;13.30;;
1344;SDS011;15375;48.540;9.268;2023-09-12T07:51:34;14.07;;;12.83;;
1344;SDS011;15375;48.540;9.268;2023-09-12T07:54:00;16.37;;;14.67;;
1344;SDS011;15375;48.540;9.268;2023-09-12T07:56:25;14.30;;;13.00;;
1344;SDS011;15375;48.540;9.268;2023-09-12T07:58:51;13.40;;;12.30;;
1344;SDS011;15375;48.540;9.268;2023-09-12T08:01:16;14.37;;;12.90;;
1344;SDS011;15375;48.540;9.268;2023-09-12T08:03:42;17.43;;;12.80;;
1344;SDS011;15375;48.540;9.268;2023-09-12T08:06:07;17.03;;;13.83;;
1344;SDS011;15375;48.540;9.268;2023-09-12T08:08:36;14.03;;;12.80;;
1344;SDS011;15375;48.540;9.268;2023-09-12T08:11:01;15.30;;;13.40;;
1344;SDS011;15375;48.540;9.268;2023-09-12T08:13:27;14.07;;;12.70;;
1344;SDS011;15375;48.540;9.268;2023-09-12T08:15:54;14.53;;;12.87;;
1344;SDS011;15375;48.540;9.268;2023-09-12T08:18:20;13.50;;;12.30;;
1344;SDS011;15375;48.540;9.268;2023-09-12T08:20:46;14.43;;;12.93;;
1344;SDS011;15375;48.540;9.268;2023-09-12T08:23:11;13.80;;;12.47;;
1344;SDS011;15375;48.540;9.268;2023-09-12T08:25:37;13.90;;;12.60;;
1344;SDS011;15375;48.540;9.268;2023-09-12T08:28:02;12.40;;;11.30;;
1344;SDS011;15375;48.540;9.268;2023-09-12T08:30:28;13.83;;;12.63;;
1344;SDS011;15375;48.540;9.268;2023-09-12T08:32:57;12.93;;;11.73;;
1344;SDS011;15375;48.540;9.268;2023-09-12T08:35:23;12.03;;;10.93;;
1344;SDS011;15375;48.540;9.268;2023-09-12T08:37:48;14.00;;;12.60;;
1344;SDS011;15375;48.540;9.268;2023-09-12T08:40:14;13.57;;;11.23;;
1344;SDS011;15375;48.540;9.268;2023-09-12T08:42:43;12.30;;;10.90;;
1344;SDS011;15375;48.540;9.268;2023-09-12T08:45:13;12.50;;;11.20;;
1344;SDS011;15375;48.540;9.268;2023-09-12T08:47:43;12.57;;;11.33;;
1344;SDS011;15375;48.540;9.268;2023-09-12T08:50:13;13.43;;;12.23;;
1344;SDS011;15375;48.540;9.268;2023-09-12T08:52:41;11.03;;;10.03;;
1344;SDS011;15375;48.540;9.268;2023-09-12T08:55:07;14.73;;;10.73;;
1344;SDS011;15375;48.540;9.268;2023-09-12T08:57:34;12.43;;;11.33;;
1344;SDS011;15375;48.540;9.268;2023-09-12T09:00:04;12.10;;;11.03;;
1344;SDS011;15375;48.540;9.268;2023-09-12T09:02:43;12.17;;;11.07;;
1344;SDS011;15375;48.540;9.268;2023-09-12T09:05:10;16.00;;;12.67;;
1344;SDS011;15375;48.540;9.268;2023-09-12T09:07:37;15.50;;;10.80;;
1344;SDS011;15375;48.540;9.268;2023-09-12T09:10:04;13.77;;;12.13;;
1344;SDS011;15375;48.540;9.268;2023-09-12T09:12:31;15.00;;;11.50;;
1344;SDS011;15375;48.540;9.268;2023-09-12T09:14:57;14.23;;;12.87;;
1344;SDS011;15375;48.540;9.268;2023-09-12T09:17:23;14.33;;;12.13;;
1344;SDS011;15375;48.540;9.268;2023-09-12T09:19:49;13.73;;;12.47;;
1344;SDS011;15375;48.540;9.268;2023-09-12T09:22:14;12.83;;;11.63;;
1344;SDS011;15375;48.540;9.268;2023-09-12T09:24:39;14.20;;;12.83;;
1344;SDS011;15375;48.540;9.268;2023-09-12T09:27:05;15.60;;;13.27;;
1344;SDS011;15375;48.540;9.268;2023-09-12T09:29:30;13.23;;;11.97;;
1344;SDS011;15375;48.540;9.268;2023-09-12T09:32:00;13.60;;;12.37;;
1344;SDS011;15375;48.540;9.268;2023-09-12T09:34:26;14.67;;;13.20;;
1344;SDS011;15375;48.540;9.268;2023-09-12T09:36:54;14.03;;;12.60;;
1344;SDS011;15375;48.540;9.268;2023-09-12T09:39:25;14.50;;;13.30;;
1344;SDS011;15375;48.540;9.268;2023-09-12T09:41:54;13.43;;;12.03;;
1344;SDS011;15375;48.540;9.268;2023-09-12T09:44:21;12.97;;;11.77;;
1344;SDS011;15375;48.540;9.268;2023-09-12T09:46:54;14.33;;;12.87;;
1344;SDS011;15375;48.540;9.268;2023-09-12T09:49:20;13.30;;;12.00;;
1344;SDS011;15375;48.540;9.268;2023-09-12T09:51:46;15.40;;;13.83;;
1344;SDS011;15375;48.540;9.268;2023-09-12T09:54:12;12.80;;;11.73;;
1344;SDS011;15375;48.540;9.268;2023-09-12T09:56:45;12.67;;;11.70;;
1344;SDS011;15375;48.540;9.268;2023-09-12T09:59:13;17.30;;;12.03;;
1344;SDS011;15375;48.540;9.268;2023-09-12T10:01:40;12.70;;;11.50;;
1344;SDS011;15375;48.540;9.268;2023-09-12T10:04:08;12.97;;;11.70;;
1344;SDS011;15375;48.540;9.268;2023-09-12T10:06:35;12.20;;;11.10;;
1344;SDS011;15375;48.540;9.268;2023-09-12T10:09:02;13.20;;;12.07;;
1344;SDS011;15375;48.540;9.268;2023-09-12T10:11:37;16.13;;;11.73;;
1344;SDS011;15375;48.540;9.268;2023-09-12T10:14:04;11.57;;;10.57;;
1344;SDS011;15375;48.540;9.268;2023-09-12T10:16:32;12.20;;;11.03;;
1344;SDS011;15375;48.540;9.268;2023-09-12T10:21:35;12.43;;;11.43;;
1344;SDS011;15375;48.540;9.268;2023-09-12T10:24:02;12.90;;;11.47;;
1344;SDS011;15375;48.540;9.268;2023-09-12T10:26:28;12.30;;;11.30;;
1344;SDS011;15375;48.540;9.268;2023-09-12T10:28:56;12.50;;;11.60;;
1344;SDS011;15375;48.540;9.268;2023-09-12T10:31:25;11.40;;;10.40;;
1344;SDS011;15375;48.540;9.268;2023-09-12T10:33:52;13.17;;;11.83;;
1344;SDS011;15375;48.540;9.268;2023-09-12T10:36:18;12.23;;;11.23;;
1344;SDS011;15375;48.540;9.268;2023-09-12T10:38:46;11.53;;;10.53;;
1344;SDS011;15375;48.540;9.268;2023-09-12T10:41:13;11.23;;;10.43;;
1344;SDS011;15375;48.540;9.268;2023-09-12T10:43:40;12.33;;;10.77;;
1344;SDS011;15375;48.540;9.268;2023-09-12T10:46:07;11.93;;;10.63;;
1344;SDS011;15375;48.540;9.268;2023-09-12T10:48:34;11.80;;;10.73;;
1344;SDS011;15375;48.540;9.268;2023-09-12T10:51:01;13.83;;;10.90;;
1344;SDS011;15375;48.540;9.268;2023-09-12T10:53:30;11.10;;;10.03;;
1344;SDS011;15375;48.540;9.268;2023-09-12T10:58:33;12.97;;;11.30;;
1344;SDS011;15375;48.540;9.268;2023-09-12T11:01:24;11.47;;;10.47;;
1344;SDS011;15375;48.540;9.268;2023-09-12T11:03:50;10.90;;;10.10;;
1344;SDS011;15375;48.540;9.268;2023-09-12T11:06:20;12.73;;;11.63;;
1344;SDS011;15375;48.540;9.268;2023-09-12T11:11:49;12.00;;;11.00;;
1344;SDS011;15375;48.540;9.268;2023-09-12T11:14:19;10.30;;;9.60;;
1344;SDS011;15375;48.540;9.268;2023-09-12T11:19:42;11.80;;;10.73;;
1344;SDS011;15375;48.540;9.268;2023-09-12T11:24:50;11.13;;;10.23;;
1344;SDS011;15375;48.540;9.268;2023-09-12T11:27:16;12.27;;;11.13;;
1344;SDS011;15375;48.540;9.268;2023-09-12T11:29:42;9.93;;;9.23;;
1344;SDS011;15375;48.540;9.268;2023-09-12T11:32:07;10.47;;;9.77;;
1344;SDS011;15375;48.540;9.268;2023-09-12T11:34:38;12.10;;;11.00;;
1344;SDS011;15375;48.540;9.268;2023-09-12T11:37:06;10.83;;;9.87;;
1344;SDS011;15375;48.540;9.268;2023-09-12T11:39:33;11.50;;;10.10;;
1344;SDS011;15375;48.540;9.268;2023-09-12T11:42:00;10.50;;;9.70;;
1344;SDS011;15375;48.540;9.268;2023-09-12T11:44:27;11.80;;;10.87;;
1344;SDS011;15375;48.540;9.268;2023-09-12T11:46:55;12.13;;;11.03;;
1344;SDS011;15375;48.540;9.268;2023-09-12T11:49:28;10.50;;;9.80;;
1344;SDS011;15375;48.540;9.268;2023-09-12T11:51:54;11.57;;;10.43;;
1344;SDS011;15375;48.540;9.268;2023-09-12T11:54:26;11.23;;;10.33;;
1344;SDS011;15375;48.540;9.268;2023-09-12T11:56:51;10.80;;;10.00;;
1344;SDS011;15375;48.540;9.268;2023-09-12T11:59:31;13.33;;;10.90;;
1344;SDS011;15375;48.540;9.268;2023-09-12T12:01:56;11.67;;;10.87;;
1344;SDS011;15375;48.540;9.268;2023-09-12T12:04:22;11.47;;;10.57;;
1344;SDS011;15375;48.540;9.268;2023-09-12T12:06:50;11.67;;;10.73;;
1344;SDS011;15375;48.540;9.268;2023-09-12T12:09:17;11.37;;;10.67;;
1344;SDS011;15375;48.540;9.268;2023-09-12T12:11:44;11.03;;;10.23;;
1344;SDS011;15375;48.540;9.268;2023-09-12T12:14:15;11.03;;;10.03;;
1344;SDS011;15375;48.540;9.268;2023-09-12T12:16:41;10.50;;;9.60;;
1344;SDS011;15375;48.540;9.268;2023-09-12T12:19:08;11.43;;;10.43;;
1344;SDS011;15375;48.540;9.268;2023-09-12T12:21:34;12.53;;;11.40;;
1344;SDS011;15375;48.540;9.268;2023-09-12T12:24:00;10.93;;;9.80;;
1344;SDS011;15375;48.540;9.268;2023-09-12T12:26:27;11.47;;;10.47;;
1344;SDS011;15375;48.540;9.268;2023-09-12T12:28:53;11.40;;;10.40;;
1344;SDS011;15375;48.540;9.268;2023-09-12T12:31:19;10.53;;;9.83;;
1344;SDS011;15375;48.540;9.268;2023-09-12T12:33:48;12.47;;;11.27;;
1344;SDS011;15375;48.540;9.268;2023-09-12T12:36:14;13.50;;;12.27;;
1344;SDS011;15375;48.540;9.268;2023-09-12T12:38:40;11.53;;;9.80;;
1344;SDS011;15375;48.540;9.268;2023-09-12T12:41:08;37.13;;;20.60;;
1344;SDS011;15375;48.540;9.268;2023-09-12T12:43:34;51.70;;;22.87;;
1344;SDS011;15375;48.540;9.268;2023-09-12T12:45:59;53.93;;;22.00;;
1344;SDS011;15375;48.540;9.268;2023-09-12T12:50:58;12.57;;;9.90;;
1344;SDS011;15375;48.540;9.268;2023-09-12T12:53:39;11.93;;;11.00;;
1344;SDS011;15375;48.540;9.268;2023-09-12T12:56:05;11.00;;;10.00;;
1344;SDS011;15375;48.540;9.268;2023-09-12T12:58:31;11.07;;;10.07;;
1344;SDS011;15375;48.540;9.268;2023-09-12T13:00:56;9.80;;;9.10;;
1344;SDS011;15375;48.540;9.268;2023-09-12T13:03:22;11.20;;;10.17;;
1344;SDS011;15375;48.540;9.268;2023-09-12T13:05:47;10.50;;;9.80;;
1344;SDS011;15375;48.540;9.268;2023-09-12T13:08:13;11.17;;;10.37;;
1344;SDS011;15375;48.540;9.268;2023-09-12T13:10:38;11.13;;;10.30;;
1344;SDS011;15375;48.540;9.268;2023-09-12T13:13:03;11.87;;;11.07;;
1344;SDS011;15375;48.540;9.268;2023-09-12T13:15:29;11.30;;;10.33;;
1344;SDS011;15375;48.540;9.268;2023-09-12T13:17:54;11.50;;;10.60;;
1344;SDS011;15375;48.540;9.268;2023-09-12T13:20:20;12.00;;;11.10;;
1344;SDS011;15375;48.540;9.268;2023-09-12T13:22:45;12.30;;;11.30;;
1344;SDS011;15375;48.540;9.268;2023-09-12T13:25:11;11.90;;;11.00;;
1344;SDS011;15375;48.540;9.268;2023-09-12T13:27:36;11.67;;;10.77;;
1344;SDS011;15375;48.540;9.268;2023-09-12T13:30:02;11.47;;;10.33;;
1344;SDS011;15375;48.540;9.268;2023-09-12T13:32:29;10.93;;;10.03;;
1344;SDS011;15375;48.540;9.268;2023-09-12T13:34:54;11.03;;;10.20;;
1344;SDS011;15375;48.540;9.268;2023-09-12T13:37:20;11.53;;;10.50;;
1344;SDS011;15375;48.540;9.268;2023-09-12T13:39:46;11.13;;;10.07;;
1344;SDS011;15375;48.540;9.268;2023-09-12T13:42:15;12.20;;;11.20;;
1344;SDS011;15375;48.540;9.268;2023-09-12T13:44:46;12.97;;;11.80;;
1344;SDS011;15375;48.540;9.268;2023-09-12T13:47:12;11.23;;;10.07;;
1344;SDS011;15375;48.540;9.268;2023-09-12T13:49:38;15.07;;;10.60;;
1344;SDS011;15375;48.540;9.268;2023-09-12T13:52:03;11.17;;;10.37;;
1344;SDS011;15375;48.540;9.268;2023-09-12T13:54:29;11.27;;;10.30;;
1344;SDS011;15375;48.540;9.268;2023-09-12T13:56:55;11.60;;;10.67;;
1344;SDS011;15375;48.540;9.268;2023-09-12T13:59:20;10.10;;;9.33;;
1344;SDS011;15375;48.540;9.268;2023-09-12T14:01:46;11.60;;;10.60;;
1344;SDS011;15375;48.540;9.268;2023-09-12T14:04:11;11.53;;;10.40;;
1344;SDS011;15375;48.540;9.268;2023-09-12T14:06:38;11.30;;;10.43;;
1344;SDS011;15375;48.540;9.268;2023-09-12T14:09:04;12.37;;;11.47;;
1344;SDS011;15375;48.540;9.268;2023-09-12T14:11:30;12.73;;;11.00;;
1344;SDS011;15375;48.540;9.268;2023-09-12T14:13:58;11.63;;;9.97;;
1344;SDS011;15375;48.540;9.268;2023-09-12T14:16:23;11.57;;;10.57;;
1344;SDS011;15375;48.540;9.268;2023-09-12T14:18:48;11.30;;;10.40;;
1344;SDS011;15375;48.540;9.268;2023-09-12T14:21:14;16.63;;;11.07;;
1344;SDS011;15375;48.540;9.268;2023-09-12T14:23:39;16.07;;;10.80;;
1344;SDS011;15375;48.540;9.268;2023-09-12T14:26:04;16.30;;;10.67;;
1344;SDS011;15375;48.540;9.268;2023-09-12T14:28:30;12.30;;;11.03;;
1344;SDS011;15375;48.540;9.268;2023-09-12T14:30:57;11.10;;;10.30;;
1344;SDS011;15375;48.540;9.268;2023-09-12T14:33:22;11.60;;;10.60;;
1344;SDS011;15375;48.540;9.268;2023-09-12T14:35:48;11.90;;;11.00;;
1344;SDS011;15375;48.540;9.268;2023-09-12T14:38:13;13.33;;;10.90;;
1344;SDS011;15375;48.540;9.268;2023-09-12T14:40:38;12.33;;;10.43;;
1344;SDS011;15375;48.540;9.268;2023-09-12T14:43:05;14.17;;;11.20;;
1344;SDS011;15375;48.540;9.268;2023-09-12T14:45:30;12.03;;;10.83;;
1344;SDS011;15375;48.540;9.268;2023-09-12T14:47:56;14.03;;;11.27;;
1344;SDS011;15375;48.540;9.268;2023-09-12T14:50:22;30.40;;;12.07;;
1344;SDS011;15375;48.540;9.268;2023-09-12T14:52:54;20.50;;;11.13;;